Time;durP1;ratioP1;P1;durP2;ratioP2;P2;SDS_P1;SDS_P2;PMS_P1;PMS_P2;Temp;Humidity;BMP_temperature;BMP_pressure;BME280_temperature;BME280_humidity;BME280_pressure;Samples;Min_cycle;Max_cycle;Signal;HPM_P1;HPM_P2
2022/03/08 00:01:36;;;;;;;7.22;5.97;;;;;;;;;;4934232;29;20110;-73
2022/03/08 00:04:02;;;;;;;5.85;5.25;;;;;;;;;;4950411;29;20434;-73
2022/03/08 00:06:28;;;;;;;5.28;4.78;;;;;;;;;;4936309;29;20043;-74
2022/03/08 00:08:54;;;;;;;6.55;5.75;;;;;;;;;;4936091;29;20040;-74
2022/03/08 00:11:20;;;;;;;6.43;5.57;;;;;;;;;;4935377;29;20028;-74
2022/03/08 00:13:50;;;;;;;5.80;4.68;;;;;;;;;;4936538;29;20023;-74
2022/03/08 00:16:16;;;;;;;6.57;5.65;;;;;;;;;;4935700;29;20036;-74
2022/03/08 00:18:44;;;;;;;5.55;5.05;;;;;;;;;;4936045;29;20023;-74
2022/03/08 00:21:10;;;;;;;5.88;5.28;;;;;;;;;;4935015;29;20062;-74
2022/03/08 00:23:36;;;;;;;6.35;5.72;;;;;;;;;;4935354;29;20538;-74
2022/03/08 00:26:03;;;;;;;5.93;5.32;;;;;;;;;;4935513;29;20035;-74
2022/03/08 00:28:29;;;;;;;5.82;5.25;;;;;;;;;;4935300;29;20031;-73
2022/03/08 00:30:56;;;;;;;6.03;4.90;;;;;;;;;;4950664;29;20032;-73
2022/03/08 00:33:22;;;;;;;5.60;5.10;;;;;;;;;;4934741;29;20031;-74
2022/03/08 00:35:48;;;;;;;5.90;5.28;;;;;;;;;;4935265;29;20103;-73
2022/03/08 00:38:15;;;;;;;5.57;5.05;;;;;;;;;;4934750;29;20411;-73
2022/03/08 00:40:41;;;;;;;5.88;5.28;;;;;;;;;;4934294;29;20023;-73
2022/03/08 00:43:08;;;;;;;5.90;5.15;;;;;;;;;;4934568;29;20114;-73
2022/03/08 00:45:34;;;;;;;6.25;5.10;;;;;;;;;;4935602;29;20039;-73
2022/03/08 00:48:00;;;;;;;6.05;5.28;;;;;;;;;;4935439;29;20027;-73
2022/03/08 00:50:27;;;;;;;6.18;5.25;;;;;;;;;;4934222;29;20419;-73
2022/03/08 00:52:54;;;;;;;6.75;5.68;;;;;;;;;;4935437;29;20403;-73
2022/03/08 00:55:20;;;;;;;6.13;5.03;;;;;;;;;;4933968;29;20466;-73
2022/03/08 00:57:47;;;;;;;5.93;5.07;;;;;;;;;;4935459;29;20440;-74
2022/03/08 01:00:15;;;;;;;6.43;5.30;;;;;;;;;;4934264;29;20042;-74
2022/03/08 01:02:41;;;;;;;6.00;5.35;;;;;;;;;;4934555;29;20032;-74
2022/03/08 01:05:08;;;;;;;4.93;4.43;;;;;;;;;;4934085;29;20062;-74
2022/03/08 01:07:34;;;;;;;5.38;4.82;;;;;;;;;;4935163;29;20032;-74
2022/03/08 01:10:00;;;;;;;6.55;5.25;;;;;;;;;;4934881;29;20027;-74
2022/03/08 01:12:26;;;;;;;5.60;4.95;;;;;;;;;;4933578;29;20041;-74
2022/03/08 01:14:53;;;;;;;6.05;5.18;;;;;;;;;;4935190;29;20038;-74
2022/03/08 01:17:19;;;;;;;6.72;5.45;;;;;;;;;;4934008;29;20031;-74
2022/03/08 01:19:45;;;;;;;5.40;4.82;;;;;;;;;;4934829;29;20407;-74
2022/03/08 01:22:12;;;;;;;6.60;5.10;;;;;;;;;;4933832;29;20031;-74
2022/03/08 01:24:38;;;;;;;6.68;5.78;;;;;;;;;;4935173;29;20517;-74
2022/03/08 01:27:04;;;;;;;5.72;4.82;;;;;;;;;;4933723;29;20031;-74
2022/03/08 01:29:30;;;;;;;5.55;4.93;;;;;;;;;;4934373;29;20043;-74
2022/03/08 01:31:56;;;;;;;5.82;5.22;;;;;;;;;;4934366;29;20031;-74
2022/03/08 01:34:23;;;;;;;5.57;4.97;;;;;;;;;;4934039;29;20028;-74
2022/03/08 01:36:49;;;;;;;5.80;4.82;;;;;;;;;;4934464;29;20020;-74
2022/03/08 01:39:15;;;;;;;5.82;4.93;;;;;;;;;;4933889;29;20035;-74
2022/03/08 01:41:41;;;;;;;5.80;4.80;;;;;;;;;;4934087;29;20561;-74
2022/03/08 01:44:11;;;;;;;5.47;4.63;;;;;;;;;;4933551;29;20024;-74
2022/03/08 01:46:37;;;;;;;4.97;4.45;;;;;;;;;;4934272;29;20032;-74
2022/03/08 01:49:05;;;;;;;6.18;5.40;;;;;;;;;;4933778;29;20099;-74
2022/03/08 01:51:31;;;;;;;5.28;4.78;;;;;;;;;;4933334;28;20040;-74
2022/03/08 01:53:57;;;;;;;4.97;4.47;;;;;;;;;;4948643;29;20578;-74
2022/03/08 01:56:23;;;;;;;5.32;4.72;;;;;;;;;;4933579;29;20055;-74
2022/03/08 01:58:49;;;;;;;5.82;5.03;;;;;;;;;;4933622;29;20019;-74
2022/03/08 02:01:15;;;;;;;6.13;5.25;;;;;;;;;;4933251;29;20038;-74
2022/03/08 02:03:41;;;;;;;5.95;4.82;;;;;;;;;;4932870;29;20048;-74
2022/03/08 02:06:07;;;;;;;6.63;4.78;;;;;;;;;;4933162;29;20079;-74
2022/03/08 02:08:33;;;;;;;5.70;5.10;;;;;;;;;;4933715;29;20447;-74
2022/03/08 02:11:00;;;;;;;5.88;5.22;;;;;;;;;;4931018;29;20023;-74
2022/03/08 02:13:26;;;;;;;5.53;5.03;;;;;;;;;;4932399;29;20038;-74
2022/03/08 02:15:53;;;;;;;6.60;4.70;;;;;;;;;;4933356;29;20020;-74
2022/03/08 02:18:19;;;;;;;6.68;5.30;;;;;;;;;;4932983;29;20091;-74
2022/03/08 02:20:46;;;;;;;6.13;4.45;;;;;;;;;;4933387;29;20058;-74
2022/03/08 02:23:12;;;;;;;5.75;5.03;;;;;;;;;;4933119;29;20452;-74
2022/03/08 02:25:38;;;;;;;5.35;4.80;;;;;;;;;;4933532;29;20059;-74
2022/03/08 02:28:06;;;;;;;5.93;4.60;;;;;;;;;;4931699;29;20491;-74
2022/03/08 02:30:33;;;;;;;4.93;4.43;;;;;;;;;;4932848;29;20074;-74
2022/03/08 02:32:59;;;;;;;5.70;4.80;;;;;;;;;;4933399;29;20054;-74
2022/03/08 02:35:26;;;;;;;5.22;4.72;;;;;;;;;;4932659;29;20063;-74
2022/03/08 02:37:54;;;;;;;5.03;4.53;;;;;;;;;;4933479;29;20051;-74
2022/03/08 02:40:22;;;;;;;5.25;4.63;;;;;;;;;;4932388;29;20407;-74
2022/03/08 02:42:48;;;;;;;4.60;4.05;;;;;;;;;;4933725;29;20498;-74
2022/03/08 02:45:15;;;;;;;5.90;5.20;;;;;;;;;;4932851;29;20016;-74
2022/03/08 02:47:41;;;;;;;6.18;5.30;;;;;;;;;;4933339;29;20023;-74
2022/03/08 02:50:08;;;;;;;5.15;4.65;;;;;;;;;;4932532;29;20702;-74
2022/03/08 02:52:35;;;;;;;5.32;4.55;;;;;;;;;;4933170;29;20060;-73
2022/03/08 02:55:01;;;;;;;5.20;4.70;;;;;;;;;;4933176;29;20016;-73
2022/03/08 02:57:27;;;;;;;5.40;4.68;;;;;;;;;;4933143;29;20024;-73
2022/03/08 02:59:53;;;;;;;5.25;4.50;;;;;;;;;;4933656;29;20075;-73
2022/03/08 03:02:20;;;;;;;5.97;4.82;;;;;;;;;;4931505;29;20038;-73
2022/03/08 03:04:46;;;;;;;5.00;4.50;;;;;;;;;;4934920;29;20043;-73
2022/03/08 03:07:12;;;;;;;4.68;4.20;;;;;;;;;;4951141;29;20087;-73
2022/03/08 03:09:38;;;;;;;5.15;4.60;;;;;;;;;;4937166;29;20029;-73
2022/03/08 03:12:05;;;;;;;4.78;4.32;;;;;;;;;;4936124;29;20070;-73
2022/03/08 03:14:31;;;;;;;4.65;4.20;;;;;;;;;;4937074;29;20474;-73
2022/03/08 03:16:57;;;;;;;4.85;4.22;;;;;;;;;;4937319;29;20023;-73
2022/03/08 03:19:23;;;;;;;5.65;4.78;;;;;;;;;;4936297;29;20510;-73
2022/03/08 03:21:49;;;;;;;4.63;4.22;;;;;;;;;;4936232;29;20106;-73
2022/03/08 03:24:16;;;;;;;4.57;3.95;;;;;;;;;;4936159;29;20038;-73
2022/03/08 03:26:43;;;;;;;5.88;4.75;;;;;;;;;;4936739;29;20067;-73
2022/03/08 03:29:09;;;;;;;5.05;4.50;;;;;;;;;;4936148;29;20514;-73
2022/03/08 03:31:35;;;;;;;5.50;4.80;;;;;;;;;;4936071;29;20031;-73
2022/03/08 03:34:01;;;;;;;4.80;4.30;;;;;;;;;;4936634;29;20020;-73
2022/03/08 03:36:27;;;;;;;5.78;4.22;;;;;;;;;;4936294;29;20486;-73
2022/03/08 03:38:53;;;;;;;5.20;4.20;;;;;;;;;;4936703;29;20051;-73
2022/03/08 03:41:20;;;;;;;4.60;4.18;;;;;;;;;;4935398;29;20414;-73
2022/03/08 03:43:46;;;;;;;5.28;4.78;;;;;;;;;;4967349;28;20024;-73
2022/03/08 03:46:12;;;;;;;4.97;4.40;;;;;;;;;;4936106;29;20027;-73
2022/03/08 03:48:38;;;;;;;5.20;4.70;;;;;;;;;;4936396;29;20035;-73
2022/03/08 03:51:04;;;;;;;4.47;4.07;;;;;;;;;;4934588;29;20028;-73
2022/03/08 03:53:30;;;;;;;4.45;4.05;;;;;;;;;;4935933;29;20028;-73
2022/03/08 03:55:56;;;;;;;5.45;4.22;;;;;;;;;;4936489;29;20020;-73
2022/03/08 03:58:22;;;;;;;5.63;4.40;;;;;;;;;;4935641;29;20522;-73
2022/03/08 04:00:48;;;;;;;5.03;4.53;;;;;;;;;;4936162;29;20060;-73
2022/03/08 04:03:15;;;;;;;4.90;4.40;;;;;;;;;;4934534;29;20044;-73
2022/03/08 04:05:41;;;;;;;4.57;4.15;;;;;;;;;;4936365;29;20028;-73
2022/03/08 04:08:08;;;;;;;4.45;4.05;;;;;;;;;;4934995;29;20031;-73
2022/03/08 04:10:34;;;;;;;4.88;4.15;;;;;;;;;;4935825;29;20067;-73
2022/03/08 04:13:00;;;;;;;6.15;4.28;;;;;;;;;;4936495;29;20078;-73
2022/03/08 04:15:26;;;;;;;4.82;4.32;;;;;;;;;;4934219;29;20031;-73
2022/03/08 04:17:52;;;;;;;5.93;4.68;;;;;;;;;;4936127;29;20024;-73
2022/03/08 04:20:18;;;;;;;4.38;3.97;;;;;;;;;;4934925;29;20115;-73
2022/03/08 04:22:45;;;;;;;4.68;4.18;;;;;;;;;;4936028;29;20024;-73
2022/03/08 04:25:11;;;;;;;5.10;4.60;;;;;;;;;;4935211;29;20407;-73
2022/03/08 04:27:38;;;;;;;4.78;4.18;;;;;;;;;;4950599;29;20027;-73
2022/03/08 04:30:08;;;;;;;3.67;3.38;;;;;;;;;;4935340;29;20055;-73
2022/03/08 04:32:34;;;;;;;4.40;4.00;;;;;;;;;;4935391;29;20515;-73
2022/03/08 04:35:00;;;;;;;4.28;3.88;;;;;;;;;;4935956;29;20116;-73
2022/03/08 04:37:26;;;;;;;4.82;4.22;;;;;;;;;;4935177;29;20545;-73
2022/03/08 04:39:52;;;;;;;5.68;4.32;;;;;;;;;;4935254;29;20059;-74
2022/03/08 04:42:18;;;;;;;4.28;3.88;;;;;;;;;;4948559;29;20036;-74
2022/03/08 04:44:44;;;;;;;4.78;4.28;;;;;;;;;;4935400;29;20118;-74
2022/03/08 04:47:10;;;;;;;4.68;4.18;;;;;;;;;;4934525;29;20035;-74
2022/03/08 04:49:36;;;;;;;4.45;4.03;;;;;;;;;;4935411;29;20027;-74
2022/03/08 04:52:02;;;;;;;5.13;3.97;;;;;;;;;;4934440;29;20116;-74
2022/03/08 04:54:29;;;;;;;4.72;4.05;;;;;;;;;;4934718;29;20024;-74
2022/03/08 04:56:55;;;;;;;4.38;3.97;;;;;;;;;;4935673;29;20046;-74
2022/03/08 04:59:21;;;;;;;4.45;3.95;;;;;;;;;;4934737;29;20118;-74
2022/03/08 05:01:49;;;;;;;4.05;3.67;;;;;;;;;;4934639;29;20024;-74
2022/03/08 05:04:15;;;;;;;4.30;3.90;;;;;;;;;;4934020;29;20075;-74
2022/03/08 05:06:41;;;;;;;4.70;4.13;;;;;;;;;;4935277;29;20087;-74
2022/03/08 05:09:07;;;;;;;4.43;3.97;;;;;;;;;;4934292;29;20039;-75
2022/03/08 05:11:33;;;;;;;5.05;3.72;;;;;;;;;;4934062;29;20028;-74
2022/03/08 05:14:00;;;;;;;4.75;4.10;;;;;;;;;;4935010;29;20395;-74
2022/03/08 05:16:26;;;;;;;6.32;4.15;;;;;;;;;;4934362;29;20028;-74
2022/03/08 05:18:52;;;;;;;5.10;4.60;;;;;;;;;;4933857;29;20114;-74
2022/03/08 05:21:18;;;;;;;3.95;3.40;;;;;;;;;;4933859;29;20034;-74
2022/03/08 05:23:44;;;;;;;4.22;3.80;;;;;;;;;;4933871;29;20067;-74
2022/03/08 05:26:10;;;;;;;4.07;3.55;;;;;;;;;;4933919;29;20035;-74
2022/03/08 05:28:36;;;;;;;4.70;3.85;;;;;;;;;;4933775;29;20027;-74
2022/03/08 05:31:02;;;;;;;5.63;4.00;;;;;;;;;;4934158;29;20035;-74
2022/03/08 05:33:29;;;;;;;4.35;3.72;;;;;;;;;;4934229;29;20430;-74
2022/03/08 05:35:55;;;;;;;4.57;3.95;;;;;;;;;;4934818;29;20419;-74
2022/03/08 05:38:21;;;;;;;3.83;3.47;;;;;;;;;;4933902;29;20501;-74
2022/03/08 05:40:47;;;;;;;3.92;3.40;;;;;;;;;;4949177;29;20027;-74
2022/03/08 05:43:13;;;;;;;5.35;3.90;;;;;;;;;;4932146;29;20059;-74
2022/03/08 05:45:39;;;;;;;4.68;4.03;;;;;;;;;;4934869;28;20020;-74
2022/03/08 05:48:05;;;;;;;5.43;4.03;;;;;;;;;;4933752;29;20114;-75
2022/03/08 05:50:31;;;;;;;4.43;3.85;;;;;;;;;;4934079;29;20526;-74
2022/03/08 05:52:57;;;;;;;4.38;3.90;;;;;;;;;;4934650;29;20567;-74
2022/03/08 05:55:24;;;;;;;3.83;3.47;;;;;;;;;;4933219;29;20689;-74
2022/03/08 05:57:51;;;;;;;3.85;3.53;;;;;;;;;;4934267;29;20028;-74
2022/03/08 06:00:17;;;;;;;4.78;3.70;;;;;;;;;;4933540;29;20506;-74
2022/03/08 06:02:43;;;;;;;4.78;4.07;;;;;;;;;;4933884;29;20019;-74
2022/03/08 06:05:09;;;;;;;4.03;3.58;;;;;;;;;;4933361;29;20090;-74
2022/03/08 06:07:35;;;;;;;3.97;3.58;;;;;;;;;;4933851;29;20047;-73
2022/03/08 06:10:02;;;;;;;3.88;3.45;;;;;;;;;;4934223;29;20055;-73
2022/03/08 06:12:28;;;;;;;4.80;3.20;;;;;;;;;;4933479;29;20019;-73
2022/03/08 06:14:54;;;;;;;4.68;3.70;;;;;;;;;;4933738;29;20091;-74
2022/03/08 06:17:20;;;;;;;3.72;3.42;;;;;;;;;;4932563;29;20031;-73
2022/03/08 06:19:46;;;;;;;4.55;3.78;;;;;;;;;;4933532;29;20034;-73
2022/03/08 06:22:12;;;;;;;3.80;3.40;;;;;;;;;;4932652;29;20035;-73
2022/03/08 06:24:38;;;;;;;5.40;3.85;;;;;;;;;;4933688;29;20054;-73
2022/03/08 06:27:04;;;;;;;4.20;3.75;;;;;;;;;;4933369;29;20024;-74
2022/03/08 06:29:31;;;;;;;5.40;3.47;;;;;;;;;;4933766;29;20117;-73
2022/03/08 06:31:57;;;;;;;4.97;3.80;;;;;;;;;;4933351;29;20027;-73
2022/03/08 06:34:23;;;;;;;3.75;3.30;;;;;;;;;;4932426;29;20039;-73
2022/03/08 06:36:49;;;;;;;4.38;3.78;;;;;;;;;;4934016;29;20023;-73
2022/03/08 06:39:15;;;;;;;4.32;3.90;;;;;;;;;;4932040;29;20059;-73
2022/03/08 06:41:41;;;;;;;3.92;3.53;;;;;;;;;;4933147;29;20030;-73
2022/03/08 06:44:08;;;;;;;3.97;3.60;;;;;;;;;;4963350;28;20040;-73
2022/03/08 06:46:34;;;;;;;4.00;3.58;;;;;;;;;;4933430;29;20020;-73
2022/03/08 06:49:00;;;;;;;4.35;3.95;;;;;;;;;;4932906;29;20032;-73
2022/03/08 06:51:26;;;;;;;4.28;3.83;;;;;;;;;;4932043;29;20078;-73
2022/03/08 06:53:52;;;;;;;3.40;3.10;;;;;;;;;;4933419;29;20094;-73
2022/03/08 06:56:18;;;;;;;4.10;3.70;;;;;;;;;;4931974;29;20074;-73
2022/03/08 06:58:44;;;;;;;4.88;3.90;;;;;;;;;;4933906;29;20031;-73
2022/03/08 07:01:10;;;;;;;4.43;3.85;;;;;;;;;;4932823;29;20032;-73
2022/03/08 07:03:36;;;;;;;4.55;3.95;;;;;;;;;;4932053;29;20160;-73
2022/03/08 07:06:05;;;;;;;5.97;4.50;;;;;;;;;;4932667;29;20028;-73
2022/03/08 07:08:31;;;;;;;6.78;4.95;;;;;;;;;;4931975;29;20060;-73
2022/03/08 07:10:57;;;;;;;6.18;4.47;;;;;;;;;;4933396;29;20020;-73
2022/03/08 07:13:23;;;;;;;6.82;4.78;;;;;;;;;;4932568;29;20515;-73
2022/03/08 07:15:49;;;;;;;7.10;4.65;;;;;;;;;;4932959;29;20376;-73
2022/03/08 07:18:15;;;;;;;6.35;4.15;;;;;;;;;;4932414;29;20036;-73
2022/03/08 07:20:41;;;;;;;6.07;4.45;;;;;;;;;;4932391;29;20035;-73
2022/03/08 07:23:07;;;;;;;8.52;4.20;;;;;;;;;;4932537;29;20034;-73
2022/03/08 07:25:34;;;;;;;5.82;4.90;;;;;;;;;;4933077;29;20083;-73
2022/03/08 07:28:00;;;;;;;6.15;4.53;;;;;;;;;;4933514;29;20071;-73
2022/03/08 07:30:26;;;;;;;5.97;4.13;;;;;;;;;;4932791;29;20410;-73
2022/03/08 07:32:52;;;;;;;6.60;4.78;;;;;;;;;;4933536;29;20398;-73
2022/03/08 07:35:18;;;;;;;5.35;4.20;;;;;;;;;;4932089;29;20107;-73
2022/03/08 07:37:45;;;;;;;6.30;4.38;;;;;;;;;;4934043;29;20020;-73
2022/03/08 07:40:11;;;;;;;4.85;4.25;;;;;;;;;;4931158;29;20035;-73
2022/03/08 07:42:37;;;;;;;8.00;4.78;;;;;;;;;;4933101;29;20056;-73
2022/03/08 07:45:04;;;;;;;5.38;4.57;;;;;;;;;;4932669;29;20095;-73
2022/03/08 07:47:30;;;;;;;4.38;3.88;;;;;;;;;;4932427;29;20119;-73
2022/03/08 07:49:56;;;;;;;8.10;4.03;;;;;;;;;;4933180;29;20031;-74
2022/03/08 07:52:22;;;;;;;6.15;4.18;;;;;;;;;;4934513;29;20027;-74
2022/03/08 07:54:48;;;;;;;5.82;4.55;;;;;;;;;;4952214;28;20518;-74
2022/03/08 07:57:14;;;;;;;4.88;4.13;;;;;;;;;;4936368;29;20516;-74
2022/03/08 07:59:40;;;;;;;6.43;4.20;;;;;;;;;;4937581;29;20027;-74
2022/03/08 08:02:06;;;;;;;6.78;5.00;;;;;;;;;;4936353;29;20087;-74
2022/03/08 08:04:32;;;;;;;5.82;4.43;;;;;;;;;;4941211;29;20051;-74
2022/03/08 08:07:03;;;;;;;8.35;5.60;;;;;;;;;;4936725;29;20027;-74
2022/03/08 08:09:29;;;;;;;5.43;4.88;;;;;;;;;;4933843;29;20031;-77
2022/03/08 08:11:55;;;;;;;6.93;4.57;;;;;;;;;;4935284;29;20020;-78
2022/03/08 08:14:21;;;;;;;6.68;4.78;;;;;;;;;;4935179;29;20047;-77
2022/03/08 08:16:51;;;;;;;5.68;4.88;;;;;;;;;;4933316;29;20015;-77
2022/03/08 08:19:17;;;;;;;5.32;4.65;;;;;;;;;;4946847;28;20130;-78
2022/03/08 08:21:43;;;;;;;4.75;4.20;;;;;;;;;;4948963;28;20034;-79
2022/03/08 08:24:09;;;;;;;7.63;4.57;;;;;;;;;;4928151;28;20054;-76
2022/03/08 08:26:36;;;;;;;8.15;4.57;;;;;;;;;;4932493;29;20023;-75
2022/03/08 08:29:02;;;;;;;5.78;4.45;;;;;;;;;;4932455;29;20025;-75
2022/03/08 08:31:30;;;;;;;8.05;4.50;;;;;;;;;;4931337;29;20024;-76
2022/03/08 08:33:56;;;;;;;4.63;4.13;;;;;;;;;;4931441;29;20031;-76
2022/03/08 08:36:22;;;;;;;7.68;4.22;;;;;;;;;;4936273;29;21045;-76
2022/03/08 08:38:48;;;;;;;6.45;4.60;;;;;;;;;;4934087;28;20027;-75
2022/03/08 08:41:14;;;;;;;6.93;4.22;;;;;;;;;;4931314;29;20035;-74
2022/03/08 08:43:40;;;;;;;5.47;4.40;;;;;;;;;;4932307;29;20407;-75
2022/03/08 08:46:07;;;;;;;7.03;4.28;;;;;;;;;;4932882;29;20110;-74
2022/03/08 08:48:33;;;;;;;6.45;4.85;;;;;;;;;;4932514;29;20722;-75
2022/03/08 08:50:59;;;;;;;7.65;4.20;;;;;;;;;;4931832;29;20031;-76
2022/03/08 08:53:26;;;;;;;6.93;4.15;;;;;;;;;;4931941;28;20024;-76
2022/03/08 08:55:53;;;;;;;5.28;4.13;;;;;;;;;;4932897;29;20020;-76
2022/03/08 08:58:19;;;;;;;6.70;4.43;;;;;;;;;;4931754;29;20023;-74
2022/03/08 09:00:45;;;;;;;7.43;4.70;;;;;;;;;;4931583;29;20027;-77
2022/03/08 09:03:14;;;;;;;7.28;4.65;;;;;;;;;;4930865;29;20479;-75
2022/03/08 09:05:44;;;;;;;6.13;4.35;;;;;;;;;;4932273;29;20012;-74
2022/03/08 09:08:14;;;;;;;6.75;4.28;;;;;;;;;;4936916;29;20027;-76
2022/03/08 09:10:40;;;;;;;5.95;4.53;;;;;;;;;;4931773;29;20042;-73
2022/03/08 09:13:07;;;;;;;6.25;4.68;;;;;;;;;;4931637;29;20062;-74
2022/03/08 09:15:33;;;;;;;6.07;3.97;;;;;;;;;;4932317;29;20423;-73
2022/03/08 09:17:59;;;;;;;13.30;5.25;;;;;;;;;;4932297;29;20427;-72
2022/03/08 09:20:26;;;;;;;5.30;3.63;;;;;;;;;;4929370;28;20802;-72
2022/03/08 09:22:55;;;;;;;7.25;4.25;;;;;;;;;;4961198;28;20110;-72
2022/03/08 09:25:22;;;;;;;4.95;3.58;;;;;;;;;;4929743;29;20100;-72
2022/03/08 09:27:49;;;;;;;5.25;3.97;;;;;;;;;;4930701;29;20030;-73
2022/03/08 09:30:16;;;;;;;6.50;4.90;;;;;;;;;;4929792;29;20590;-74
2022/03/08 09:32:42;;;;;;;6.10;4.15;;;;;;;;;;4931065;29;20103;-74
2022/03/08 09:35:08;;;;;;;7.15;3.80;;;;;;;;;;4930442;29;20039;-73
2022/03/08 09:37:35;;;;;;;5.80;4.30;;;;;;;;;;4945733;28;20031;-73
2022/03/08 09:40:02;;;;;;;4.60;4.03;;;;;;;;;;4945388;29;20032;-74
2022/03/08 09:42:30;;;;;;;6.47;3.92;;;;;;;;;;4929752;29;20027;-74
2022/03/08 09:44:56;;;;;;;7.60;4.65;;;;;;;;;;4933794;29;20027;-74
2022/03/08 09:47:23;;;;;;;6.55;4.10;;;;;;;;;;4931312;28;20036;-74
2022/03/08 09:49:50;;;;;;;7.55;4.47;;;;;;;;;;4935701;28;20031;-74
2022/03/08 09:52:19;;;;;;;6.55;4.20;;;;;;;;;;4944820;28;20020;-72
2022/03/08 09:54:47;;;;;;;5.90;4.45;;;;;;;;;;4930993;29;20139;-75
2022/03/08 09:57:14;;;;;;;6.40;4.53;;;;;;;;;;4928546;29;20111;-74
2022/03/08 09:59:42;;;;;;;6.07;4.63;;;;;;;;;;4930523;29;20038;-74
2022/03/08 10:02:08;;;;;;;8.07;4.57;;;;;;;;;;4928142;29;20106;-75
2022/03/08 10:04:34;;;;;;;8.05;5.03;;;;;;;;;;4931453;29;20094;-76
2022/03/08 10:07:07;;;;;;;13.95;7.32;;;;;;;;;;4931306;29;20035;-73
2022/03/08 10:09:33;;;;;;;7.53;5.53;;;;;;;;;;4929331;29;20503;-76
2022/03/08 10:11:59;;;;;;;8.68;5.20;;;;;;;;;;4933848;29;20097;-74
2022/03/08 10:14:38;;;;;;;9.43;6.70;;;;;;;;;;4929478;28;20031;-73
2022/03/08 10:17:05;;;;;;;7.15;5.78;;;;;;;;;;4930315;29;20099;-73
2022/03/08 10:19:33;;;;;;;8.32;6.70;;;;;;;;;;4931348;29;20090;-74
2022/03/08 10:21:59;;;;;;;10.73;7.70;;;;;;;;;;4928916;29;20058;-73
2022/03/08 10:24:26;;;;;;;10.18;6.93;;;;;;;;;;4930149;29;20038;-74
2022/03/08 10:26:56;;;;;;;8.20;5.38;;;;;;;;;;4930307;29;20032;-74
2022/03/08 10:29:23;;;;;;;8.70;7.50;;;;;;;;;;4929487;29;20036;-72
2022/03/08 10:31:49;;;;;;;7.20;5.72;;;;;;;;;;4928271;29;20026;-75
2022/03/08 10:34:17;;;;;;;11.82;8.63;;;;;;;;;;4929660;29;20024;-74
2022/03/08 10:37:03;;;;;;;9.13;5.50;;;;;;;;;;4929905;29;20028;-74
2022/03/08 10:39:29;;;;;;;10.75;5.90;;;;;;;;;;4926170;29;20517;-75
2022/03/08 10:41:57;;;;;;;6.32;4.90;;;;;;;;;;4929053;29;20023;-74
2022/03/08 10:44:32;;;;;;;7.90;5.40;;;;;;;;;;4928949;28;20043;-74
2022/03/08 10:46:59;;;;;;;9.05;6.53;;;;;;;;;;4929402;29;20020;-75
2022/03/08 10:49:25;;;;;;;9.88;6.18;;;;;;;;;;4928953;29;20094;-76
2022/03/08 10:51:59;;;;;;;8.73;5.43;;;;;;;;;;4929126;29;20059;-76
2022/03/08 10:54:26;;;;;;;8.10;5.15;;;;;;;;;;4929370;29;20127;-73
2022/03/08 10:56:52;;;;;;;7.32;5.80;;;;;;;;;;4929737;29;20020;-74
2022/03/08 10:59:18;;;;;;;9.68;5.57;;;;;;;;;;4929295;29;20103;-75
2022/03/08 11:01:44;;;;;;;7.15;5.20;;;;;;;;;;4929373;29;20032;-76
2022/03/08 11:04:18;;;;;;;7.65;5.10;;;;;;;;;;4943136;28;20075;-77
2022/03/08 11:06:50;;;;;;;7.25;5.68;;;;;;;;;;4928523;29;20091;-76
2022/03/08 11:09:17;;;;;;;8.88;5.03;;;;;;;;;;4926925;29;20040;-80
2022/03/08 11:11:43;;;;;;;7.85;4.60;;;;;;;;;;4935156;29;20019;-74
2022/03/08 11:14:10;;;;;;;6.68;4.65;;;;;;;;;;4927155;29;20019;-74
2022/03/08 11:16:38;;;;;;;11.30;5.75;;;;;;;;;;4929202;29;20031;-75
2022/03/08 11:19:05;;;;;;;7.70;6.25;;;;;;;;;;4943849;29;20027;-75
2022/03/08 11:21:33;;;;;;;7.45;5.60;;;;;;;;;;4943351;29;20599;-73
2022/03/08 11:23:59;;;;;;;7.18;4.65;;;;;;;;;;4944341;29;20024;-73
2022/03/08 11:26:26;;;;;;;6.85;5.03;;;;;;;;;;4931718;29;20030;-77
2022/03/08 11:28:53;;;;;;;7.45;5.88;;;;;;;;;;4933933;29;20047;-76
2022/03/08 11:31:22;;;;;;;12.70;7.07;;;;;;;;;;4930865;29;20024;-75
2022/03/08 11:33:48;;;;;;;7.10;4.93;;;;;;;;;;4932746;29;20028;-75
2022/03/08 11:36:32;;;;;;;6.32;4.65;;;;;;;;;;4948404;29;20395;-75
2022/03/08 11:39:11;;;;;;;6.63;4.90;;;;;;;;;;4931066;29;20028;-74
2022/03/08 11:41:37;;;;;;;8.85;4.93;;;;;;;;;;4929008;29;20028;-74
2022/03/08 11:44:07;;;;;;;7.72;5.22;;;;;;;;;;4932881;29;20023;-76
2022/03/08 11:46:35;;;;;;;9.23;5.38;;;;;;;;;;4933687;29;20024;-74
2022/03/08 11:49:04;;;;;;;8.65;6.03;;;;;;;;;;4932524;29;20039;-75
2022/03/08 11:51:32;;;;;;;11.82;6.72;;;;;;;;;;4932366;29;20028;-75
2022/03/08 11:54:03;;;;;;;12.63;6.53;;;;;;;;;;4932720;29;20027;-75
2022/03/08 11:56:29;;;;;;;12.02;5.72;;;;;;;;;;4934232;29;20542;-75
2022/03/08 11:59:08;;;;;;;10.98;6.45;;;;;;;;;;4933995;29;20053;-74
2022/03/08 12:01:38;;;;;;;14.80;6.60;;;20.90;46.90;;;;;;4963426;28;20043;-76
2022/03/08 12:04:18;;;;;;;11.38;6.88;;;20.30;50.70;;;;;;4934818;29;20054;-76
2022/03/08 12:06:54;;;;;;;13.13;6.18;;;21.10;45.80;;;;;;4934734;29;20027;-75
2022/03/08 12:09:25;;;;;;;11.13;6.30;;;19.20;50.40;;;;;;4932924;29;20020;-74
2022/03/08 12:12:03;;;;;;;15.75;7.55;;;17.80;54.90;;;;;;4934045;29;20102;-75
2022/03/08 12:14:30;;;;;;;15.63;6.55;;;;;;;;;;4929560;29;20020;-74
2022/03/08 12:17:07;;;;;;;14.73;6.80;;;21.10;64.10;;;;;;4930767;29;20400;-75
2022/03/08 12:19:34;;;;;;;14.90;7.00;;;;;;;;;;4929184;29;20031;-76
2022/03/08 12:22:01;;;;;;;12.57;6.70;;;;;;;;;;4948023;29;20032;-76
2022/03/08 12:24:27;;;;;;;10.25;6.50;;;;;;;;;;4935257;29;20082;-75
2022/03/08 12:27:01;;;;;;;12.18;6.10;;;18.70;63.90;;;;;;4932222;28;20416;-75
2022/03/08 12:29:29;;;;;;;15.85;6.75;;;;;;;;;;4932733;29;20020;-77
2022/03/08 12:31:59;;;;;;;10.68;5.65;;;;;;;;;;4963421;28;20038;-76
2022/03/08 12:34:43;;;;;;;9.93;6.07;;;18.40;62.00;;;;;;4932759;29;20028;-76
2022/03/08 12:37:11;;;;;;;10.43;6.70;;;;;;;;;;4932563;29;20056;-76
2022/03/08 12:40:03;;;;;;;10.52;5.95;;;21.90;64.60;;;;;;4932834;29;20024;-76
2022/03/08 12:42:32;;;;;;;10.70;6.65;;;;;;;;;;4931569;29;20537;-76
2022/03/08 12:45:10;;;;;;;12.88;6.07;;;24.60;65.70;;;;;;4932115;29;20055;-73
2022/03/08 12:47:36;;;;;;;10.73;5.88;;;;;;;;;;4933778;29;20106;-74
2022/03/08 12:50:07;;;;;;;8.52;6.15;;;;;;;;;;4932939;29;20059;-76
2022/03/08 12:52:35;;;;;;;10.93;5.80;;;;;;;;;;4939510;29;20535;-76
2022/03/08 12:55:03;;;;;;;11.32;5.85;;;;;;;;;;4933438;29;20027;-75
2022/03/08 12:57:30;;;;;;;10.80;5.90;;;;;;;;;;4947876;28;20075;-73
2022/03/08 12:59:56;;;;;;;10.38;5.43;;;;;;;;;;4932315;29;20027;-72
2022/03/08 13:02:22;;;;;;;12.82;6.50;;;;;;;;;;4929019;29;20068;-72
2022/03/08 13:04:49;;;;;;;12.57;6.50;;;;;;;;;;4944025;29;21423;-72
2022/03/08 13:07:18;;;;;;;9.82;6.13;;;;;;;;;;4930799;29;20039;-73
2022/03/08 13:09:56;;;;;;;14.80;6.75;;;24.00;65.60;;;;;;4930705;29;20107;-73
2022/03/08 13:12:23;;;;;;;10.68;5.95;;;;;;;;;;4928502;29;20028;-73
2022/03/08 13:15:15;;;;;;;12.15;6.05;;;18.10;63.00;;;;;;4930400;29;20024;-73
2022/03/08 13:17:46;;;;;;;13.98;6.25;;;;;;;;;;4930461;29;20036;-73
2022/03/08 13:20:37;;;;;;;9.90;6.20;;;19.60;67.60;;;;;;4928593;29;20036;-73
2022/03/08 13:23:06;;;;;;;11.65;5.85;;;;;;;;;;4959170;28;20035;-75
2022/03/08 13:25:32;;;;;;;11.02;5.68;;;;;;;;;;4930963;29;20627;-74
2022/03/08 13:28:05;;;;;;;11.40;6.22;;;;;;;;;;4931182;29;20063;-74
2022/03/08 13:30:32;;;;;;;10.85;6.15;;;;;;;;;;4929598;29;20038;-75
2022/03/08 13:33:18;;;;;;;10.60;5.70;;;;;;;;;;4928758;29;20491;-73
2022/03/08 13:35:44;;;;;;;9.90;5.45;;;;;;;;;;4928666;29;20015;-73
2022/03/08 13:38:15;;;;;;;11.32;6.75;;;;;;;;;;4930505;29;20142;-73
2022/03/08 13:40:41;;;;;;;10.35;5.32;;;;;;;;;;4931562;29;20672;-72
2022/03/08 13:43:09;;;;;;;11.80;6.18;;;;;;;;;;4927876;29;20047;-73
2022/03/08 13:45:35;;;;;;;11.35;6.00;;;;;;;;;;4930416;29;20035;-72
2022/03/08 13:48:02;;;;;;;9.63;5.63;;;;;;;;;;4929611;29;20036;-73
2022/03/08 13:50:29;;;;;;;8.50;5.50;;;;;;;;;;4930364;29;20040;-73
2022/03/08 13:52:56;;;;;;;8.23;5.47;;;;;;;;;;4929161;28;20450;-73
2022/03/08 13:55:29;;;;;;;11.43;5.13;;;;;;;;;;4928339;28;20087;-76
2022/03/08 13:57:56;;;;;;;8.90;5.40;;;;;;;;;;4927655;29;20027;-73
2022/03/08 14:00:26;;;;;;;8.88;5.38;;;;;;;;;;4929853;29;20043;-74
2022/03/08 14:02:56;;;;;;;9.85;5.57;;;;;;;;;;4929559;29;20053;-74
2022/03/08 14:05:23;;;;;;;10.40;5.28;;;;;;;;;;4930381;29;20102;-75
2022/03/08 14:08:02;;;;;;;10.05;5.70;;;;;;;;;;4931310;29;20027;-76
2022/03/08 14:10:29;;;;;;;7.88;5.32;;;;;;;;;;4930648;29;20054;-76
2022/03/08 14:12:59;;;;;;;8.35;4.97;;;;;;;;;;4930332;29;20098;-76
2022/03/08 14:15:29;;;;;;;8.23;5.50;;;;;;;;;;4928973;29;20467;-75
2022/03/08 14:18:05;;;;;;;10.95;5.45;;;;;;;;;;4929602;29;20032;-76
2022/03/08 14:20:36;;;;;;;9.48;5.07;;;;;;;;;;4957230;28;20061;-76
2022/03/08 14:23:02;;;;;;;7.22;4.80;;;;;;;;;;4929558;29;20074;-74
2022/03/08 14:25:29;;;;;;;8.45;4.75;;;;;;;;;;4930185;29;20040;-74
2022/03/08 14:27:55;;;;;;;10.50;5.28;;;;;;;;;;4944646;29;20059;-73
2022/03/08 14:30:23;;;;;;;9.90;4.55;;;;;;;;;;4928044;29;20028;-75
2022/03/08 14:32:49;;;;;;;11.02;5.22;;;;;;;;;;4928538;29;20090;-76
2022/03/08 14:35:20;;;;;;;6.85;4.53;;;;;;;;;;4941974;29;20028;-75
2022/03/08 14:37:46;;;;;;;5.53;4.65;;;;;;;;;;4958922;28;20060;-74